createdAt,value
2023-03-27T00:00:32.805Z,81.79
2023-03-27T00:03:20.874Z,81.91
2023-03-27T00:06:16.464Z,81.91
2023-03-27T00:08:58.955Z,81.83
2023-03-27T00:11:47.896Z,81.93
2023-03-27T00:14:42.727Z,81.94
2023-03-27T00:17:31.182Z,81.98
2023-03-27T00:20:13.708Z,82.31
2023-03-27T00:23:03.104Z,82.03
2023-03-27T00:25:44.715Z,82.16
2023-03-27T00:28:35.778Z,82.18
2023-03-27T00:31:19.136Z,82.22
2023-03-27T00:34:07.844Z,82.23
2023-03-27T00:36:51.287Z,82.13
2023-03-27T00:39:40.669Z,82.35
2023-03-27T00:42:23.038Z,82.29
2023-03-27T00:45:11.662Z,82.20
2023-03-27T00:47:56.693Z,81.87
2023-03-27T00:50:49.693Z,82.19
2023-03-27T00:53:42.731Z,81.92
2023-03-27T00:56:26.269Z,81.88
2023-03-27T00:59:17.679Z,82.21
2023-03-27T01:02:06.941Z,82.37
2023-03-27T01:04:49.635Z,82.48
2023-03-27T01:07:39.631Z,82.56
2023-03-27T01:10:21.785Z,82.38
2023-03-27T01:13:29.216Z,82.04
2023-03-27T01:16:23.801Z,82.27
2023-03-27T01:19:32.748Z,82.28
2023-03-27T01:23:07.145Z,82.13
2023-03-27T01:26:12.766Z,82.19
2023-03-27T01:29:07.068Z,82.38
2023-03-27T01:32:12.728Z,82.27
2023-03-27T01:35:22.340Z,82.13
2023-03-27T01:38:29.676Z,82.23
2023-03-27T01:41:30.632Z,82.45
2023-03-27T01:44:25.222Z,82.47
2023-03-27T01:47:34.619Z,82.38
2023-03-27T01:50:28.886Z,82.33
2023-03-27T01:53:14.533Z,82.53
2023-03-27T01:56:09.257Z,82.46
2023-03-27T01:58:57.866Z,82.59
2023-03-27T02:01:50.884Z,82.43
2023-03-27T02:04:34.676Z,82.54
2023-03-27T02:07:36.726Z,82.71
2023-03-27T02:10:23.268Z,82.75
2023-03-27T02:13:16.068Z,82.72
2023-03-27T02:16:07.826Z,82.41
2023-03-27T02:18:56.516Z,82.49
2023-03-27T02:21:46.219Z,82.77
2023-03-27T02:24:29.491Z,82.93
2023-03-27T02:27:25.295Z,82.77
2023-03-27T02:30:16.530Z,82.87
2023-03-27T02:33:21.597Z,82.75
2023-03-27T02:36:16.660Z,82.48
2023-03-27T02:39:12.771Z,82.54
2023-03-27T02:42:11.379Z,82.37
2023-03-27T02:45:16.665Z,82.27
2023-03-27T02:48:13.683Z,81.88
2023-03-27T02:50:59.610Z,81.92
2023-03-27T02:53:54.706Z,81.68
2023-03-27T02:56:45.513Z,81.79
2023-03-27T02:59:43.548Z,81.68
2023-03-27T03:02:32.896Z,81.84
2023-03-27T03:05:27.489Z,81.80
2023-03-27T03:08:10.726Z,81.74
2023-03-27T03:10:58.960Z,81.45
2023-03-27T03:13:42.187Z,81.93
2023-03-27T03:16:30.634Z,81.86
2023-03-27T03:19:11.708Z,81.70
2023-03-27T03:22:02.494Z,81.61
2023-03-27T03:24:45.722Z,81.67
2023-03-27T03:27:35.456Z,81.45
2023-03-27T03:30:27.460Z,81.45
2023-03-27T03:33:14.390Z,81.33
2023-03-27T03:36:05.627Z,81.35
2023-03-27T03:38:56.688Z,80.80
2023-03-27T03:41:38.549Z,81.08
2023-03-27T03:44:26.748Z,81.25
2023-03-27T03:47:11.474Z,81.15
2023-03-27T03:49:59.698Z,80.92
2023-03-27T03:52:41.365Z,81.08
2023-03-27T03:55:31.818Z,81.22
2023-03-27T03:58:13.454Z,81.26
2023-03-27T04:01:10.627Z,80.95
2023-03-27T04:03:57.789Z,80.69
2023-03-27T04:07:05.346Z,81.14
2023-03-27T04:09:52.744Z,80.94
2023-03-27T04:12:44.465Z,80.77
2023-03-27T04:16:02.452Z,80.43
2023-03-27T04:18:57.592Z,80.67
2023-03-27T04:21:42.499Z,80.55
2023-03-27T04:24:31.367Z,80.54
2023-03-27T04:27:20.391Z,80.34
2023-03-27T04:30:27.991Z,80.35
2023-03-27T04:33:26.374Z,80.26
2023-03-27T04:36:31.341Z,80.15
2023-03-27T04:39:36.404Z,80.02
2023-03-27T04:42:24.600Z,79.78
2023-03-27T04:45:06.383Z,80.10
2023-03-27T04:47:58.662Z,79.98
2023-03-27T04:50:41.327Z,79.99
2023-03-27T04:53:36.390Z,79.74
2023-03-27T04:56:22.935Z,79.96
2023-03-27T04:59:12.326Z,80.07
2023-03-27T05:02:13.542Z,79.94
2023-03-27T05:05:08.259Z,79.81
2023-03-27T05:07:58.149Z,79.50
2023-03-27T05:10:40.248Z,79.43
2023-03-27T05:13:28.824Z,79.28
2023-03-27T05:16:18.313Z,79.37
2023-03-27T05:19:10.478Z,79.28
2023-03-27T05:21:59.479Z,79.26
2023-03-27T05:24:47.240Z,78.99
2023-03-27T05:27:35.513Z,79.02
2023-03-27T05:30:17.246Z,78.99
2023-03-27T05:33:17.741Z,78.95
2023-03-27T05:36:07.261Z,78.90
2023-03-27T05:38:58.773Z,79.21
2023-03-27T05:41:48.231Z,79.17
2023-03-27T05:44:36.426Z,78.95
2023-03-27T05:47:18.255Z,79.49
2023-03-27T05:50:08.166Z,79.94
2023-03-27T05:52:49.824Z,79.95
2023-03-27T05:55:44.186Z,79.99
2023-03-27T05:58:25.646Z,79.38
2023-03-27T06:01:18.433Z,79.12
2023-03-27T06:04:02.550Z,79.54
2023-03-27T06:07:11.323Z,79.16
2023-03-27T06:09:53.953Z,79.17
2023-03-27T06:13:09.140Z,79.01
2023-03-27T06:16:14.330Z,79.05
2023-03-27T06:19:33.706Z,79.58
2023-03-27T06:22:21.312Z,79.16
2023-03-27T06:25:09.463Z,79.39
2023-03-27T06:27:52.622Z,78.84
2023-03-27T06:30:42.740Z,78.59
2023-03-27T06:33:36.181Z,78.61
2023-03-27T06:36:39.140Z,78.33
2023-03-27T06:39:21.694Z,78.46
2023-03-27T06:42:10.172Z,78.85
2023-03-27T06:44:59.574Z,79.21
2023-03-27T06:48:21.288Z,78.28
2023-03-27T06:51:05.328Z,76.56
2023-03-27T06:53:53.242Z,75.34
2023-03-27T06:56:35.416Z,74.03
2023-03-27T06:59:30.084Z,72.80
2023-03-27T07:02:19.133Z,70.72
2023-03-27T07:05:05.225Z,68.79
2023-03-27T07:07:56.046Z,67.58
2023-03-27T07:10:48.760Z,66.08
2023-03-27T07:13:44.202Z,64.99
2023-03-27T07:16:49.256Z,63.40
2023-03-27T07:19:42.276Z,61.77
2023-03-27T07:22:31.273Z,60.09
2023-03-27T07:25:28.200Z,58.50
2023-03-27T07:28:24.902Z,59.88
2023-03-27T07:31:29.679Z,60.92
2023-03-27T07:34:22.206Z,62.15
2023-03-27T07:37:29.541Z,63.55
2023-03-27T07:40:40.445Z,64.46
2023-03-27T07:43:52.137Z,65.42
2023-03-27T07:46:35.381Z,65.70
2023-03-27T07:49:38.754Z,66.23
2023-03-27T07:52:24.384Z,66.97
2023-03-27T07:55:19.095Z,67.67
2023-03-27T07:58:14.446Z,69.17
2023-03-27T08:01:10.169Z,66.67
2023-03-27T08:03:55.210Z,63.33
2023-03-27T08:06:49.335Z,60.35
2023-03-27T08:09:40.306Z,58.50
2023-03-27T08:12:29.818Z,56.14
2023-03-27T08:15:42.335Z,54.91
2023-03-27T08:18:33.350Z,50.96
2023-03-27T08:21:24.129Z,50.71
2023-03-27T08:24:13.228Z,51.18
2023-03-27T08:27:24.984Z,50.76
2023-03-27T08:30:17.364Z,49.03
2023-03-27T08:33:00.693Z,48.71
2023-03-27T08:35:49.038Z,45.92
2023-03-27T08:38:33.635Z,46.62
2023-03-27T08:41:36.977Z,47.46
2023-03-27T08:44:29.254Z,47.84
2023-03-27T08:47:39.014Z,49.26
2023-03-27T08:50:45.933Z,50.67
2023-03-27T08:53:46.374Z,52.34
2023-03-27T08:56:34.063Z,54.05
2023-03-27T08:59:26.540Z,55.80
2023-03-27T09:02:18.001Z,55.97
2023-03-27T09:05:16.600Z,56.63
2023-03-27T09:08:05.950Z,57.10
2023-03-27T09:11:00.119Z,57.69
2023-03-27T09:13:55.068Z,58.32
2023-03-27T09:16:56.893Z,58.03
2023-03-27T09:19:55.873Z,55.33
2023-03-27T09:22:53.974Z,54.99
2023-03-27T09:26:12.799Z,54.67
2023-03-27T09:29:30.908Z,51.69
2023-03-27T09:32:35.420Z,52.36
2023-03-27T09:35:33.102Z,53.37
2023-03-27T09:38:32.968Z,52.04
2023-03-27T09:41:25.374Z,53.17
2023-03-27T09:44:16.882Z,51.06
2023-03-27T09:47:07.180Z,50.28
2023-03-27T09:50:02.873Z,50.24
2023-03-27T09:53:00.179Z,50.02
2023-03-27T09:56:03.852Z,49.77
2023-03-27T09:58:52.127Z,49.65
2023-03-27T10:01:42.842Z,49.04
2023-03-27T10:04:29.270Z,49.08
2023-03-27T10:07:31.816Z,50.29
2023-03-27T10:10:27.018Z,50.14
2023-03-27T10:13:16.678Z,49.14
2023-03-27T10:16:13.908Z,48.09
2023-03-27T10:19:23.241Z,46.04
2023-03-27T10:22:18.062Z,44.53
2023-03-27T10:25:09.719Z,46.52
2023-03-27T10:28:18.801Z,45.53
2023-03-27T10:31:41.898Z,45.01
2023-03-27T10:34:43.631Z,43.71
2023-03-27T10:37:51.124Z,44.80
2023-03-27T10:40:56.464Z,48.20
2023-03-27T10:43:55.865Z,49.10
2023-03-27T10:46:46.354Z,49.67
2023-03-27T10:49:42.902Z,49.55
2023-03-27T10:52:50.859Z,48.40
2023-03-27T10:55:58.255Z,49.91
2023-03-27T10:58:56.791Z,50.27
2023-03-27T11:01:52.477Z,49.67
2023-03-27T11:04:47.893Z,48.21
2023-03-27T11:07:41.580Z,49.12
2023-03-27T11:10:29.745Z,47.14
2023-03-27T11:13:37.727Z,46.26
2023-03-27T11:16:32.008Z,48.90
2023-03-27T11:19:44.920Z,47.12
2023-03-27T11:22:42.245Z,46.17
2023-03-27T11:25:53.693Z,46.44
2023-03-27T11:28:47.960Z,47.15
2023-03-27T11:31:44.718Z,49.31
2023-03-27T11:35:09.677Z,45.83
2023-03-27T11:38:00.773Z,47.13
2023-03-27T11:40:57.916Z,48.60
2023-03-27T11:43:46.978Z,49.58
2023-03-27T11:47:43.809Z,48.65
2023-03-27T11:50:42.160Z,48.77
2023-03-27T11:53:57.691Z,48.29
2023-03-27T11:57:06.673Z,50.51
2023-03-27T12:00:29.310Z,49.77
2023-03-27T12:03:35.818Z,50.31
2023-03-27T12:06:35.059Z,51.22
2023-03-27T12:09:41.644Z,49.95
2023-03-27T12:12:57.080Z,49.60
2023-03-27T12:16:01.662Z,49.78
2023-03-27T12:19:26.950Z,50.52
2023-03-27T12:22:31.496Z,50.79
2023-03-27T12:25:51.631Z,49.70
2023-03-27T12:29:23.144Z,50.62
2023-03-27T12:32:25.820Z,50.01
2023-03-27T12:35:21.471Z,49.93
2023-03-27T12:38:14.887Z,46.57
2023-03-27T12:41:13.614Z,47.18
2023-03-27T12:44:07.483Z,47.49
2023-03-27T12:47:19.563Z,47.67
2023-03-27T12:50:27.609Z,47.89
2023-03-27T12:53:13.217Z,48.02
2023-03-27T12:56:33.741Z,47.97
2023-03-27T12:59:27.826Z,50.92
2023-03-27T13:02:56.706Z,49.99
2023-03-27T13:05:55.847Z,49.39
2023-03-27T13:09:06.572Z,49.31
2023-03-27T13:12:28.547Z,48.67
2023-03-27T13:15:48.548Z,48.71
2023-03-27T13:18:58.568Z,46.88
2023-03-27T13:21:55.886Z,46.26
2023-03-27T13:25:14.553Z,46.04
2023-03-27T13:28:22.173Z,45.67
2023-03-27T13:31:23.648Z,46.66
2023-03-27T13:34:28.582Z,47.21
2023-03-27T13:37:42.839Z,47.84
2023-03-27T13:40:41.540Z,46.17
2023-03-27T13:43:35.355Z,46.31
2023-03-27T13:46:35.529Z,46.65
2023-03-27T13:49:46.537Z,45.98
2023-03-27T13:53:01.142Z,47.63
2023-03-27T13:56:33.554Z,45.80
2023-03-27T14:00:07.325Z,45.45
2023-03-27T14:03:44.573Z,45.82
2023-03-27T14:07:08.505Z,45.76
2023-03-27T14:10:11.403Z,46.13
2023-03-27T14:13:18.455Z,46.36
2023-03-27T14:16:37.486Z,47.28
2023-03-27T14:19:50.495Z,47.70
2023-03-27T14:22:49.517Z,47.29
2023-03-27T14:25:38.479Z,47.53
2023-03-27T14:28:47.488Z,48.15
2023-03-27T14:31:52.530Z,47.84
2023-03-27T14:34:53.396Z,47.38
2023-03-27T14:37:45.027Z,47.77
2023-03-27T14:40:48.452Z,48.43
2023-03-27T14:43:55.394Z,48.53
2023-03-27T14:46:42.122Z,49.33
2023-03-27T14:49:34.397Z,48.95
2023-03-27T14:52:25.115Z,49.19
2023-03-27T14:55:42.493Z,49.98
2023-03-27T14:58:52.670Z,50.05
2023-03-27T15:01:43.457Z,48.83
2023-03-27T15:04:27.211Z,48.59
2023-03-27T15:07:26.492Z,49.42
2023-03-27T15:10:29.633Z,49.21
2023-03-27T15:13:43.459Z,49.48
2023-03-27T15:16:49.402Z,48.91
2023-03-27T15:19:52.365Z,49.73
2023-03-27T15:22:40.556Z,51.05
2023-03-27T15:25:39.477Z,51.28
2023-03-27T15:28:28.365Z,51.33
2023-03-27T15:31:18.651Z,52.38
2023-03-27T15:34:06.677Z,52.09
2023-03-27T15:37:00.457Z,51.50
2023-03-27T15:40:13.430Z,51.45
2023-03-27T15:43:02.438Z,52.33
2023-03-27T15:45:46.741Z,52.93
2023-03-27T15:48:40.373Z,52.89
2023-03-27T15:51:36.662Z,52.33
2023-03-27T15:54:34.323Z,52.35
2023-03-27T15:57:22.603Z,52.57
2023-03-27T16:00:17.341Z,52.63
2023-03-27T16:02:58.584Z,53.66
2023-03-27T16:05:50.414Z,54.06
2023-03-27T16:08:38.521Z,54.49
2023-03-27T16:11:47.284Z,54.15
2023-03-27T16:14:37.562Z,54.28
2023-03-27T16:17:31.395Z,54.40
2023-03-27T16:20:42.240Z,54.15
2023-03-27T16:23:30.312Z,53.74
2023-03-27T16:26:14.572Z,53.85
2023-03-27T16:29:05.237Z,53.92
2023-03-27T16:31:46.543Z,53.78
2023-03-27T16:34:34.230Z,53.95
2023-03-27T16:37:15.495Z,55.19
2023-03-27T16:40:04.285Z,54.86
2023-03-27T16:42:47.525Z,55.10
2023-03-27T16:45:35.328Z,55.69
2023-03-27T16:48:18.498Z,55.98
2023-03-27T16:51:06.267Z,55.87
2023-03-27T16:53:54.210Z,56.39
2023-03-27T16:56:42.563Z,56.53
2023-03-27T16:59:25.280Z,56.64
2023-03-27T17:02:14.542Z,56.77
2023-03-27T17:04:55.358Z,57.30
2023-03-27T17:07:44.919Z,57.69
2023-03-27T17:10:27.258Z,58.19
2023-03-27T17:13:15.440Z,58.41
2023-03-27T17:16:13.232Z,59.27
2023-03-27T17:19:02.246Z,59.31
2023-03-27T17:21:43.582Z,59.67
2023-03-27T17:24:31.523Z,60.29
2023-03-27T17:27:12.478Z,60.96
2023-03-27T17:30:02.210Z,61.28
2023-03-27T17:32:46.912Z,61.53
2023-03-27T17:35:35.213Z,61.86
2023-03-27T17:38:19.184Z,62.27
2023-03-27T17:41:07.134Z,62.96
2023-03-27T17:43:49.805Z,62.86
2023-03-27T17:46:37.197Z,63.44
2023-03-27T17:49:27.188Z,63.83
2023-03-27T17:52:11.477Z,64.00
2023-03-27T17:55:00.027Z,64.35
2023-03-27T17:57:55.688Z,64.48
2023-03-27T18:00:44.102Z,64.80
2023-03-27T18:03:32.444Z,65.07
2023-03-27T18:06:15.087Z,65.33
2023-03-27T18:09:03.419Z,65.58
2023-03-27T18:11:45.135Z,65.59
2023-03-27T18:14:40.149Z,66.17
2023-03-27T18:17:35.126Z,65.75
2023-03-27T18:20:23.125Z,66.27
2023-03-27T18:23:06.318Z,66.61
2023-03-27T18:25:54.161Z,66.40
2023-03-27T18:28:35.908Z,66.58
2023-03-27T18:31:24.113Z,66.75
2023-03-27T18:34:05.363Z,66.69
2023-03-27T18:36:57.110Z,66.70
2023-03-27T18:39:40.460Z,66.73
2023-03-27T18:42:28.081Z,67.11
2023-03-27T18:45:16.071Z,67.21
2023-03-27T18:48:04.354Z,67.10
2023-03-27T18:50:45.026Z,67.15
2023-03-27T18:53:33.304Z,67.08
2023-03-27T18:56:16.114Z,67.38
2023-03-27T18:59:04.358Z,67.57
2023-03-27T19:01:45.009Z,67.82
2023-03-27T19:04:33.216Z,68.02
2023-03-27T19:07:14.007Z,68.20
2023-03-27T19:10:02.237Z,68.22
2023-03-27T19:12:46.099Z,68.88
2023-03-27T19:15:52.025Z,68.96
2023-03-27T19:19:12.310Z,69.22
2023-03-27T19:21:59.041Z,69.42
2023-03-27T19:24:47.912Z,69.53
2023-03-27T19:27:38.349Z,70.01
2023-03-27T19:30:29.285Z,70.06
2023-03-27T19:33:10.065Z,70.14
2023-03-27T19:36:00.279Z,70.16
2023-03-27T19:38:43.980Z,70.43
2023-03-27T19:41:34.003Z,70.54
2023-03-27T19:44:16.097Z,70.60
2023-03-27T19:47:05.999Z,70.69
2023-03-27T19:49:47.361Z,70.80
2023-03-27T19:53:08.680Z,70.98
2023-03-27T19:55:51.261Z,71.44
2023-03-27T19:58:39.939Z,71.67
2023-03-27T20:01:21.551Z,71.73
2023-03-27T20:04:10.921Z,71.99
2023-03-27T20:06:52.176Z,72.33
2023-03-27T20:09:39.979Z,72.66
2023-03-27T20:12:31.831Z,72.86
2023-03-27T20:15:21.136Z,72.90
2023-03-27T20:18:11.020Z,74.11
2023-03-27T20:20:56.241Z,74.20
2023-03-27T20:23:44.886Z,74.35
2023-03-27T20:26:38.939Z,74.66
2023-03-27T20:29:32.877Z,75.09
2023-03-27T20:32:20.942Z,74.52
2023-03-27T20:35:22.654Z,75.23
2023-03-27T20:38:10.936Z,75.01
2023-03-27T20:41:03.834Z,74.82
2023-03-27T20:43:45.884Z,75.11
2023-03-27T20:46:34.169Z,75.21
2023-03-27T20:49:15.879Z,75.01
2023-03-27T20:52:04.203Z,74.87
2023-03-27T20:54:46.850Z,75.19
2023-03-27T20:57:42.846Z,75.14
2023-03-27T21:00:24.652Z,75.31
2023-03-27T21:03:13.938Z,75.46
2023-03-27T21:06:02.084Z,75.31
2023-03-27T21:08:43.820Z,75.40
2023-03-27T21:11:35.074Z,75.31
2023-03-27T21:14:15.810Z,75.23
2023-03-27T21:17:10.786Z,75.26
2023-03-27T21:19:58.801Z,76.35
2023-03-27T21:22:40.105Z,76.93
2023-03-27T21:25:28.904Z,76.75
2023-03-27T21:28:15.009Z,77.74
2023-03-27T21:31:02.846Z,77.66
2023-03-27T21:33:45.072Z,78.27
2023-03-27T21:36:32.927Z,77.84
2023-03-27T21:39:14.032Z,78.05
2023-03-27T21:42:01.764Z,78.28
2023-03-27T21:44:55.674Z,77.90
2023-03-27T21:47:47.640Z,78.18
2023-03-27T21:50:29.857Z,78.24
2023-03-27T21:53:18.795Z,78.22
2023-03-27T21:56:00.258Z,78.24
2023-03-27T21:58:48.814Z,78.61
2023-03-27T22:01:32.081Z,79.28
2023-03-27T22:04:21.690Z,79.54
2023-03-27T22:07:02.967Z,79.26
2023-03-27T22:09:51.776Z,79.42
2023-03-27T22:12:33.980Z,79.66
2023-03-27T22:15:21.745Z,79.93
2023-03-27T22:18:19.754Z,79.62
2023-03-27T22:21:01.529Z,79.81
2023-03-27T22:23:49.846Z,80.75
2023-03-27T22:26:40.970Z,80.79
2023-03-27T22:29:50.623Z,80.85
2023-03-27T22:32:41.172Z,81.59
2023-03-27T22:35:28.160Z,81.63
2023-03-27T22:39:07.771Z,82.29
2023-03-27T22:41:51.879Z,83.08
2023-03-27T22:44:49.742Z,84.00
2023-03-27T22:47:39.044Z,83.75
2023-03-27T22:50:25.681Z,83.50
2023-03-27T22:53:22.256Z,83.33
2023-03-27T22:56:07.837Z,83.76
2023-03-27T22:59:14.084Z,84.08
2023-03-27T23:02:05.733Z,84.24
2023-03-27T23:05:50.082Z,84.79
2023-03-27T23:09:38.212Z,85.76
2023-03-27T23:12:31.374Z,85.68
2023-03-27T23:15:31.734Z,86.17
2023-03-27T23:18:26.189Z,86.45
2023-03-27T23:21:09.703Z,86.45
2023-03-27T23:24:10.230Z,86.45
2023-03-27T23:26:51.906Z,86.14
2023-03-27T23:29:39.663Z,85.88
2023-03-27T23:32:28.918Z,86.09
2023-03-27T23:35:09.656Z,86.02
2023-03-27T23:37:57.887Z,85.65
2023-03-27T23:40:42.657Z,85.27
2023-03-27T23:43:30.895Z,84.91
2023-03-27T23:46:14.684Z,85.67
2023-03-27T23:49:02.907Z,85.24
2023-03-27T23:51:44.604Z,85.36
2023-03-27T23:54:39.573Z,84.92
2023-03-27T23:57:22.878Z,84.81
